sensor_id;sensor_type;location;lat;lon;timestamp;P1;durP1;ratioP1;P2;durP2;ratioP2
78004;SDS011;67209;51.698;-0.292;2024-03-23T00:56:00;3.95;;;0.90;;
78004;SDS011;67209;51.698;-0.292;2024-03-23T00:58:26;2.60;;;0.60;;
78004;SDS011;67209;51.698;-0.292;2024-03-23T01:00:52;3.90;;;0.80;;
78004;SDS011;67209;51.698;-0.292;2024-03-23T01:03:18;4.13;;;0.93;;
78004;SDS011;67209;51.698;-0.292;2024-03-23T01:05:44;2.70;;;0.80;;
78004;SDS011;67209;51.698;-0.292;2024-03-23T01:08:10;2.53;;;0.70;;
78004;SDS011;67209;51.698;-0.292;2024-03-23T01:10:36;2.80;;;0.68;;
78004;SDS011;67209;51.698;-0.292;2024-03-23T01:13:02;1.55;;;0.50;;
78004;SDS011;67209;51.698;-0.292;2024-03-23T01:15:28;3.78;;;0.65;;
78004;SDS011;67209;51.698;-0.292;2024-03-23T01:17:54;5.50;;;0.60;;
78004;SDS011;67209;51.698;-0.292;2024-03-23T01:20:20;5.45;;;0.70;;
78004;SDS011;67209;51.698;-0.292;2024-03-23T01:22:46;2.88;;;0.70;;
78004;SDS011;67209;51.698;-0.292;2024-03-23T01:25:12;2.75;;;1.00;;
78004;SDS011;67209;51.698;-0.292;2024-03-23T01:27:38;2.95;;;0.60;;
78004;SDS011;67209;51.698;-0.292;2024-03-23T01:30:04;5.43;;;0.50;;
78004;SDS011;67209;51.698;-0.292;2024-03-23T01:32:30;6.28;;;0.70;;
78004;SDS011;67209;51.698;-0.292;2024-03-23T01:34:57;6.05;;;0.82;;
78004;SDS011;67209;51.698;-0.292;2024-03-23T01:37:23;4.30;;;0.68;;
78004;SDS011;67209;51.698;-0.292;2024-03-23T01:39:49;3.28;;;0.63;;
78004;SDS011;67209;51.698;-0.292;2024-03-23T01:42:15;4.60;;;1.00;;
78004;SDS011;67209;51.698;-0.292;2024-03-23T01:44:41;5.90;;;0.73;;
78004;SDS011;67209;51.698;-0.292;2024-03-23T01:47:07;4.70;;;0.80;;
78004;SDS011;67209;51.698;-0.292;2024-03-23T01:49:34;2.60;;;0.52;;
78004;SDS011;67209;51.698;-0.292;2024-03-23T01:52:00;5.15;;;0.60;;
78004;SDS011;67209;51.698;-0.292;2024-03-23T01:54:27;3.42;;;0.57;;
78004;SDS011;67209;51.698;-0.292;2024-03-23T01:56:53;4.25;;;0.70;;
78004;SDS011;67209;51.698;-0.292;2024-03-23T01:59:20;1.85;;;0.50;;
78004;SDS011;67209;51.698;-0.292;2024-03-23T02:01:46;2.72;;;0.45;;
78004;SDS011;67209;51.698;-0.292;2024-03-23T02:04:12;3.63;;;0.75;;
78004;SDS011;67209;51.698;-0.292;2024-03-23T02:06:38;3.47;;;0.60;;
78004;SDS011;67209;51.698;-0.292;2024-03-23T02:09:04;2.80;;;0.60;;
78004;SDS011;67209;51.698;-0.292;2024-03-23T02:11:30;3.35;;;0.82;;
78004;SDS011;67209;51.698;-0.292;2024-03-23T02:13:56;2.92;;;0.90;;
78004;SDS011;67209;51.698;-0.292;2024-03-23T02:16:23;2.85;;;0.57;;
78004;SDS011;67209;51.698;-0.292;2024-03-23T02:18:49;2.67;;;0.40;;
78004;SDS011;67209;51.698;-0.292;2024-03-23T02:21:15;2.25;;;0.40;;
78004;SDS011;67209;51.698;-0.292;2024-03-23T02:23:41;4.00;;;0.50;;
78004;SDS011;67209;51.698;-0.292;2024-03-23T02:26:07;2.88;;;0.40;;
78004;SDS011;67209;51.698;-0.292;2024-03-23T02:28:33;4.43;;;0.45;;
78004;SDS011;67209;51.698;-0.292;2024-03-23T02:30:59;3.42;;;0.73;;
78004;SDS011;67209;51.698;-0.292;2024-03-23T02:33:26;2.30;;;0.30;;
78004;SDS011;67209;51.698;-0.292;2024-03-23T02:35:55;3.20;;;0.70;;
78004;SDS011;67209;51.698;-0.292;2024-03-23T02:38:21;4.57;;;0.50;;
78004;SDS011;67209;51.698;-0.292;2024-03-23T02:40:47;1.92;;;0.40;;
78004;SDS011;67209;51.698;-0.292;2024-03-23T02:43:13;3.30;;;0.65;;
78004;SDS011;67209;51.698;-0.292;2024-03-23T02:45:39;1.73;;;0.65;;
78004;SDS011;67209;51.698;-0.292;2024-03-23T02:48:05;5.20;;;0.70;;
78004;SDS011;67209;51.698;-0.292;2024-03-23T02:50:31;5.35;;;0.47;;
78004;SDS011;67209;51.698;-0.292;2024-03-23T02:52:58;3.67;;;0.68;;
78004;SDS011;67209;51.698;-0.292;2024-03-23T02:55:24;2.22;;;0.75;;
78004;SDS011;67209;51.698;-0.292;2024-03-23T02:57:50;2.35;;;0.50;;
78004;SDS011;67209;51.698;-0.292;2024-03-23T03:00:16;5.25;;;1.00;;
78004;SDS011;67209;51.698;-0.292;2024-03-23T03:02:45;3.42;;;0.50;;
78004;SDS011;67209;51.698;-0.292;2024-03-23T03:05:11;3.55;;;0.88;;
78004;SDS011;67209;51.698;-0.292;2024-03-23T03:07:38;3.75;;;0.70;;
78004;SDS011;67209;51.698;-0.292;2024-03-23T03:10:06;6.63;;;0.70;;
78004;SDS011;67209;51.698;-0.292;2024-03-23T03:12:33;1.50;;;0.60;;
78004;SDS011;67209;51.698;-0.292;2024-03-23T03:14:59;3.20;;;0.63;;
78004;SDS011;67209;51.698;-0.292;2024-03-23T03:17:25;3.75;;;0.95;;
78004;SDS011;67209;51.698;-0.292;2024-03-23T03:19:51;5.55;;;0.80;;
78004;SDS011;67209;51.698;-0.292;2024-03-23T03:22:20;4.30;;;0.63;;
78004;SDS011;67209;51.698;-0.292;2024-03-23T03:24:46;6.22;;;0.80;;
78004;SDS011;67209;51.698;-0.292;2024-03-23T03:27:13;9.80;;;1.88;;
78004;SDS011;67209;51.698;-0.292;2024-03-23T03:29:39;7.50;;;0.65;;
78004;SDS011;67209;51.698;-0.292;2024-03-23T03:32:05;2.20;;;0.50;;
78004;SDS011;67209;51.698;-0.292;2024-03-23T03:34:31;5.38;;;0.60;;
78004;SDS011;67209;51.698;-0.292;2024-03-23T03:36:57;3.33;;;0.55;;
78004;SDS011;67209;51.698;-0.292;2024-03-23T03:39:24;5.03;;;0.82;;
78004;SDS011;67209;51.698;-0.292;2024-03-23T03:41:50;6.35;;;0.95;;
78004;SDS011;67209;51.698;-0.292;2024-03-23T03:44:16;4.63;;;0.75;;
78004;SDS011;67209;51.698;-0.292;2024-03-23T03:46:42;3.78;;;0.77;;
78004;SDS011;67209;51.698;-0.292;2024-03-23T03:49:09;2.88;;;0.65;;
78004;SDS011;67209;51.698;-0.292;2024-03-23T03:51:35;4.47;;;1.10;;
78004;SDS011;67209;51.698;-0.292;2024-03-23T03:54:01;3.78;;;0.50;;
78004;SDS011;67209;51.698;-0.292;2024-03-23T03:56:27;5.68;;;0.80;;
78004;SDS011;67209;51.698;-0.292;2024-03-23T03:58:53;5.55;;;0.70;;
78004;SDS011;67209;51.698;-0.292;2024-03-23T04:01:19;4.22;;;0.65;;
78004;SDS011;67209;51.698;-0.292;2024-03-23T04:03:45;5.40;;;0.73;;
78004;SDS011;67209;51.698;-0.292;2024-03-23T04:06:11;4.25;;;0.60;;
78004;SDS011;67209;51.698;-0.292;2024-03-23T04:08:37;4.00;;;0.73;;
78004;SDS011;67209;51.698;-0.292;2024-03-23T04:11:04;4.22;;;0.82;;
78004;SDS011;67209;51.698;-0.292;2024-03-23T04:13:30;5.22;;;0.77;;
78004;SDS011;67209;51.698;-0.292;2024-03-23T04:15:56;5.32;;;0.98;;
78004;SDS011;67209;51.698;-0.292;2024-03-23T04:18:22;3.15;;;0.90;;
78004;SDS011;67209;51.698;-0.292;2024-03-23T04:20:49;2.88;;;0.50;;
78004;SDS011;67209;51.698;-0.292;2024-03-23T04:23:15;4.45;;;0.75;;
78004;SDS011;67209;51.698;-0.292;2024-03-23T04:25:41;4.85;;;1.05;;
78004;SDS011;67209;51.698;-0.292;2024-03-23T04:28:07;3.28;;;0.90;;
78004;SDS011;67209;51.698;-0.292;2024-03-23T04:30:33;3.50;;;0.88;;
78004;SDS011;67209;51.698;-0.292;2024-03-23T04:32:59;6.10;;;0.95;;
78004;SDS011;67209;51.698;-0.292;2024-03-23T04:35:26;5.38;;;0.60;;
78004;SDS011;67209;51.698;-0.292;2024-03-23T04:37:53;3.22;;;0.90;;
78004;SDS011;67209;51.698;-0.292;2024-03-23T04:40:20;7.88;;;0.80;;
78004;SDS011;67209;51.698;-0.292;2024-03-23T04:42:46;5.18;;;0.80;;
78004;SDS011;67209;51.698;-0.292;2024-03-23T04:45:13;3.47;;;0.90;;
78004;SDS011;67209;51.698;-0.292;2024-03-23T04:47:40;5.63;;;0.75;;
78004;SDS011;67209;51.698;-0.292;2024-03-23T04:50:06;4.38;;;0.90;;
78004;SDS011;67209;51.698;-0.292;2024-03-23T04:52:32;3.58;;;0.80;;
78004;SDS011;67209;51.698;-0.292;2024-03-23T04:54:58;4.63;;;0.90;;
78004;SDS011;67209;51.698;-0.292;2024-03-23T04:57:24;6.40;;;1.10;;
78004;SDS011;67209;51.698;-0.292;2024-03-23T04:59:50;4.32;;;0.93;;
78004;SDS011;67209;51.698;-0.292;2024-03-23T05:02:16;5.53;;;0.80;;
78004;SDS011;67209;51.698;-0.292;2024-03-23T05:04:42;5.88;;;0.82;;
78004;SDS011;67209;51.698;-0.292;2024-03-23T05:07:08;5.35;;;0.85;;
78004;SDS011;67209;51.698;-0.292;2024-03-23T05:09:34;5.70;;;1.27;;
78004;SDS011;67209;51.698;-0.292;2024-03-23T05:12:00;3.08;;;0.68;;
78004;SDS011;67209;51.698;-0.292;2024-03-23T05:14:27;4.45;;;1.20;;
78004;SDS011;67209;51.698;-0.292;2024-03-23T05:16:53;7.97;;;1.02;;
78004;SDS011;67209;51.698;-0.292;2024-03-23T05:19:20;6.30;;;0.90;;
78004;SDS011;67209;51.698;-0.292;2024-03-23T05:21:47;6.63;;;1.10;;
78004;SDS011;67209;51.698;-0.292;2024-03-23T05:24:13;5.50;;;1.30;;
78004;SDS011;67209;51.698;-0.292;2024-03-23T05:26:39;6.35;;;1.25;;
78004;SDS011;67209;51.698;-0.292;2024-03-23T05:29:05;5.30;;;0.90;;
78004;SDS011;67209;51.698;-0.292;2024-03-23T05:31:35;2.72;;;0.82;;
78004;SDS011;67209;51.698;-0.292;2024-03-23T05:34:02;5.32;;;0.63;;
78004;SDS011;67209;51.698;-0.292;2024-03-23T05:36:28;4.28;;;0.63;;
78004;SDS011;67209;51.698;-0.292;2024-03-23T05:38:55;2.33;;;0.63;;
78004;SDS011;67209;51.698;-0.292;2024-03-23T05:41:21;3.33;;;0.90;;
78004;SDS011;67209;51.698;-0.292;2024-03-23T05:43:49;5.43;;;0.73;;
78004;SDS011;67209;51.698;-0.292;2024-03-23T05:46:15;2.92;;;1.13;;
78004;SDS011;67209;51.698;-0.292;2024-03-23T05:48:41;4.40;;;0.70;;
78004;SDS011;67209;51.698;-0.292;2024-03-23T05:51:07;5.95;;;0.85;;
78004;SDS011;67209;51.698;-0.292;2024-03-23T05:53:33;5.30;;;0.82;;
78004;SDS011;67209;51.698;-0.292;2024-03-23T05:56:00;3.38;;;0.57;;
78004;SDS011;67209;51.698;-0.292;2024-03-23T05:58:28;5.72;;;1.02;;
78004;SDS011;67209;51.698;-0.292;2024-03-23T06:00:58;6.10;;;0.80;;
78004;SDS011;67209;51.698;-0.292;2024-03-23T06:03:25;2.78;;;0.57;;
78004;SDS011;67209;51.698;-0.292;2024-03-23T06:05:51;4.63;;;0.60;;
78004;SDS011;67209;51.698;-0.292;2024-03-23T06:08:20;6.00;;;1.00;;
78004;SDS011;67209;51.698;-0.292;2024-03-23T06:10:47;6.40;;;0.85;;
78004;SDS011;67209;51.698;-0.292;2024-03-23T06:13:13;6.07;;;0.95;;
78004;SDS011;67209;51.698;-0.292;2024-03-23T06:15:39;3.80;;;0.90;;
78004;SDS011;67209;51.698;-0.292;2024-03-23T06:18:05;4.75;;;0.90;;
78004;SDS011;67209;51.698;-0.292;2024-03-23T06:20:33;4.68;;;0.93;;
78004;SDS011;67209;51.698;-0.292;2024-03-23T06:23:00;4.55;;;1.10;;
78004;SDS011;67209;51.698;-0.292;2024-03-23T06:25:26;4.32;;;0.63;;
78004;SDS011;67209;51.698;-0.292;2024-03-23T06:27:52;5.95;;;1.08;;
78004;SDS011;67209;51.698;-0.292;2024-03-23T06:30:18;7.78;;;0.85;;
78004;SDS011;67209;51.698;-0.292;2024-03-23T06:32:44;5.93;;;0.70;;
78004;SDS011;67209;51.698;-0.292;2024-03-23T06:35:11;3.85;;;0.50;;
78004;SDS011;67209;51.698;-0.292;2024-03-23T06:37:37;5.28;;;0.70;;
78004;SDS011;67209;51.698;-0.292;2024-03-23T06:40:04;7.75;;;1.00;;
78004;SDS011;67209;51.698;-0.292;2024-03-23T06:42:33;9.70;;;1.02;;
78004;SDS011;67209;51.698;-0.292;2024-03-23T06:44:59;6.10;;;0.80;;
78004;SDS011;67209;51.698;-0.292;2024-03-23T06:47:25;6.40;;;1.27;;
78004;SDS011;67209;51.698;-0.292;2024-03-23T06:49:51;8.70;;;1.30;;
78004;SDS011;67209;51.698;-0.292;2024-03-23T06:52:17;5.07;;;0.75;;
78004;SDS011;67209;51.698;-0.292;2024-03-23T06:54:43;5.25;;;1.02;;
78004;SDS011;67209;51.698;-0.292;2024-03-23T06:57:10;4.40;;;0.70;;
78004;SDS011;67209;51.698;-0.292;2024-03-23T06:59:37;4.18;;;0.90;;
78004;SDS011;67209;51.698;-0.292;2024-03-23T07:02:04;6.55;;;1.13;;
78004;SDS011;67209;51.698;-0.292;2024-03-23T07:04:30;7.60;;;1.27;;
78004;SDS011;67209;51.698;-0.292;2024-03-23T07:06:56;2.28;;;0.85;;
78004;SDS011;67209;51.698;-0.292;2024-03-23T07:09:22;5.78;;;0.88;;
78004;SDS011;67209;51.698;-0.292;2024-03-23T07:11:51;4.45;;;0.98;;
78004;SDS011;67209;51.698;-0.292;2024-03-23T07:14:17;6.47;;;0.93;;
78004;SDS011;67209;51.698;-0.292;2024-03-23T07:16:43;5.15;;;0.68;;
78004;SDS011;67209;51.698;-0.292;2024-03-23T07:19:09;2.80;;;0.70;;
78004;SDS011;67209;51.698;-0.292;2024-03-23T07:21:35;5.50;;;0.85;;
78004;SDS011;67209;51.698;-0.292;2024-03-23T07:24:01;7.68;;;1.13;;
78004;SDS011;67209;51.698;-0.292;2024-03-23T07:26:27;5.70;;;0.90;;
78004;SDS011;67209;51.698;-0.292;2024-03-23T07:28:53;5.40;;;0.65;;
78004;SDS011;67209;51.698;-0.292;2024-03-23T07:31:19;4.25;;;0.77;;
78004;SDS011;67209;51.698;-0.292;2024-03-23T07:33:47;7.18;;;0.80;;
78004;SDS011;67209;51.698;-0.292;2024-03-23T07:36:13;4.72;;;0.77;;
78004;SDS011;67209;51.698;-0.292;2024-03-23T07:38:42;7.85;;;0.95;;
78004;SDS011;67209;51.698;-0.292;2024-03-23T07:41:12;4.05;;;1.27;;
78004;SDS011;67209;51.698;-0.292;2024-03-23T07:43:40;3.33;;;1.13;;
78004;SDS011;67209;51.698;-0.292;2024-03-23T07:46:06;7.00;;;0.80;;
78004;SDS011;67209;51.698;-0.292;2024-03-23T07:48:32;6.45;;;1.00;;
78004;SDS011;67209;51.698;-0.292;2024-03-23T07:51:16;6.70;;;1.27;;
78004;SDS011;67209;51.698;-0.292;2024-03-23T07:53:43;5.43;;;1.17;;
78004;SDS011;67209;51.698;-0.292;2024-03-23T07:56:13;5.82;;;1.42;;
78004;SDS011;67209;51.698;-0.292;2024-03-23T07:58:40;5.93;;;0.95;;
78004;SDS011;67209;51.698;-0.292;2024-03-23T08:01:07;5.97;;;1.00;;
78004;SDS011;67209;51.698;-0.292;2024-03-23T08:03:34;5.97;;;0.85;;
78004;SDS011;67209;51.698;-0.292;2024-03-23T08:06:13;4.20;;;0.90;;
78004;SDS011;67209;51.698;-0.292;2024-03-23T08:08:39;4.72;;;0.75;;
78004;SDS011;67209;51.698;-0.292;2024-03-23T08:11:06;5.82;;;1.15;;
78004;SDS011;67209;51.698;-0.292;2024-03-23T08:13:32;4.90;;;1.00;;
78004;SDS011;67209;51.698;-0.292;2024-03-23T08:15:59;7.35;;;1.95;;
78004;SDS011;67209;51.698;-0.292;2024-03-23T08:18:25;5.13;;;0.70;;
78004;SDS011;67209;51.698;-0.292;2024-03-23T08:21:09;6.60;;;0.88;;
78004;SDS011;67209;51.698;-0.292;2024-03-23T08:23:36;3.65;;;0.65;;
78004;SDS011;67209;51.698;-0.292;2024-03-23T08:26:06;5.03;;;0.88;;
78004;SDS011;67209;51.698;-0.292;2024-03-23T08:28:32;4.60;;;0.65;;
78004;SDS011;67209;51.698;-0.292;2024-03-23T08:31:02;3.65;;;0.88;;
78004;SDS011;67209;51.698;-0.292;2024-03-23T08:33:28;4.15;;;0.73;;
78004;SDS011;67209;51.698;-0.292;2024-03-23T08:38:21;8.73;;;0.88;;
78004;SDS011;67209;51.698;-0.292;2024-03-23T08:40:47;4.30;;;0.50;;
78004;SDS011;67209;51.698;-0.292;2024-03-23T08:43:13;5.53;;;0.70;;
78004;SDS011;67209;51.698;-0.292;2024-03-23T08:45:39;8.13;;;1.13;;
78004;SDS011;67209;51.698;-0.292;2024-03-23T08:48:06;8.05;;;1.00;;
78004;SDS011;67209;51.698;-0.292;2024-03-23T08:50:32;5.22;;;1.25;;
78004;SDS011;67209;51.698;-0.292;2024-03-23T08:52:58;4.00;;;0.88;;
78004;SDS011;67209;51.698;-0.292;2024-03-23T08:55:24;5.47;;;1.02;;
78004;SDS011;67209;51.698;-0.292;2024-03-23T08:57:50;4.82;;;1.00;;
78004;SDS011;67209;51.698;-0.292;2024-03-23T09:00:16;3.40;;;0.50;;
78004;SDS011;67209;51.698;-0.292;2024-03-23T09:02:42;7.70;;;0.98;;
78004;SDS011;67209;51.698;-0.292;2024-03-23T09:05:08;3.38;;;0.70;;
78004;SDS011;67209;51.698;-0.292;2024-03-23T09:07:34;3.97;;;0.88;;
78004;SDS011;67209;51.698;-0.292;2024-03-23T09:10:00;8.73;;;0.77;;
78004;SDS011;67209;51.698;-0.292;2024-03-23T09:12:26;8.77;;;0.90;;
78004;SDS011;67209;51.698;-0.292;2024-03-23T09:14:52;3.83;;;0.90;;
78004;SDS011;67209;51.698;-0.292;2024-03-23T09:17:19;4.15;;;0.60;;
78004;SDS011;67209;51.698;-0.292;2024-03-23T09:19:45;4.68;;;0.88;;
78004;SDS011;67209;51.698;-0.292;2024-03-23T09:22:11;3.10;;;0.70;;
78004;SDS011;67209;51.698;-0.292;2024-03-23T09:24:38;6.78;;;0.88;;
78004;SDS011;67209;51.698;-0.292;2024-03-23T09:27:04;5.63;;;0.95;;
78004;SDS011;67209;51.698;-0.292;2024-03-23T09:29:30;4.93;;;1.17;;
78004;SDS011;67209;51.698;-0.292;2024-03-23T09:31:56;4.15;;;0.60;;
78004;SDS011;67209;51.698;-0.292;2024-03-23T09:34:22;4.05;;;0.65;;
78004;SDS011;67209;51.698;-0.292;2024-03-23T09:36:51;5.78;;;0.70;;
78004;SDS011;67209;51.698;-0.292;2024-03-23T09:39:18;3.13;;;0.95;;
78004;SDS011;67209;51.698;-0.292;2024-03-23T09:41:44;2.80;;;0.43;;
78004;SDS011;67209;51.698;-0.292;2024-03-23T09:44:10;2.88;;;0.60;;
78004;SDS011;67209;51.698;-0.292;2024-03-23T09:46:36;3.55;;;0.80;;
78004;SDS011;67209;51.698;-0.292;2024-03-23T09:49:04;5.22;;;0.80;;
78004;SDS011;67209;51.698;-0.292;2024-03-23T09:51:31;7.68;;;1.90;;
78004;SDS011;67209;51.698;-0.292;2024-03-23T09:53:57;16.15;;;3.47;;
78004;SDS011;67209;51.698;-0.292;2024-03-23T09:56:23;5.93;;;1.40;;
78004;SDS011;67209;51.698;-0.292;2024-03-23T09:58:49;4.82;;;1.33;;
78004;SDS011;67209;51.698;-0.292;2024-03-23T10:01:16;5.47;;;1.15;;
78004;SDS011;67209;51.698;-0.292;2024-03-23T10:03:43;4.45;;;1.27;;
78004;SDS011;67209;51.698;-0.292;2024-03-23T10:06:09;5.40;;;0.80;;
78004;SDS011;67209;51.698;-0.292;2024-03-23T10:08:35;7.10;;;1.05;;
78004;SDS011;67209;51.698;-0.292;2024-03-23T10:11:22;6.18;;;1.45;;
78004;SDS011;67209;51.698;-0.292;2024-03-23T10:13:50;6.82;;;1.13;;
78004;SDS011;67209;51.698;-0.292;2024-03-23T10:16:23;6.15;;;2.25;;
78004;SDS011;67209;51.698;-0.292;2024-03-23T10:18:49;5.47;;;1.60;;
78004;SDS011;67209;51.698;-0.292;2024-03-23T10:21:16;4.88;;;0.80;;
78004;SDS011;67209;51.698;-0.292;2024-03-23T10:23:43;5.38;;;0.98;;
78004;SDS011;67209;51.698;-0.292;2024-03-23T10:26:18;7.82;;;1.02;;
78004;SDS011;67209;51.698;-0.292;2024-03-23T10:28:53;5.22;;;1.55;;
78004;SDS011;67209;51.698;-0.292;2024-03-23T10:31:19;4.80;;;0.95;;
78004;SDS011;67209;51.698;-0.292;2024-03-23T10:33:49;10.07;;;2.28;;
78004;SDS011;67209;51.698;-0.292;2024-03-23T10:36:15;3.70;;;1.02;;
78004;SDS011;67209;51.698;-0.292;2024-03-23T10:38:42;5.10;;;1.17;;
78004;SDS011;67209;51.698;-0.292;2024-03-23T10:41:09;4.22;;;0.65;;
78004;SDS011;67209;51.698;-0.292;2024-03-23T10:43:35;6.45;;;0.80;;
78004;SDS011;67209;51.698;-0.292;2024-03-23T10:46:02;6.22;;;0.98;;
78004;SDS011;67209;51.698;-0.292;2024-03-23T10:48:28;3.85;;;0.95;;
78004;SDS011;67209;51.698;-0.292;2024-03-23T10:50:54;5.57;;;0.85;;
78004;SDS011;67209;51.698;-0.292;2024-03-23T10:53:27;5.18;;;0.80;;
78004;SDS011;67209;51.698;-0.292;2024-03-23T10:55:54;5.28;;;0.90;;
78004;SDS011;67209;51.698;-0.292;2024-03-23T10:58:24;5.15;;;0.80;;
78004;SDS011;67209;51.698;-0.292;2024-03-23T11:00:52;3.92;;;0.75;;
78004;SDS011;67209;51.698;-0.292;2024-03-23T11:03:37;2.80;;;0.68;;
78004;SDS011;67209;51.698;-0.292;2024-03-23T11:06:04;5.28;;;1.45;;
78004;SDS011;67209;51.698;-0.292;2024-03-23T11:08:31;3.55;;;0.80;;
78004;SDS011;67209;51.698;-0.292;2024-03-23T11:13:43;4.68;;;1.52;;
78004;SDS011;67209;51.698;-0.292;2024-03-23T11:16:12;5.78;;;1.08;;
78004;SDS011;67209;51.698;-0.292;2024-03-23T11:18:39;3.35;;;1.00;;
78004;SDS011;67209;51.698;-0.292;2024-03-23T11:21:06;6.03;;;1.00;;
78004;SDS011;67209;51.698;-0.292;2024-03-23T11:23:32;8.10;;;0.90;;
78004;SDS011;67209;51.698;-0.292;2024-03-23T11:25:58;5.65;;;0.90;;
78004;SDS011;67209;51.698;-0.292;2024-03-23T11:28:25;5.20;;;1.00;;
78004;SDS011;67209;51.698;-0.292;2024-03-23T11:30:51;9.35;;;1.25;;
78004;SDS011;67209;51.698;-0.292;2024-03-23T11:33:17;3.42;;;0.80;;
78004;SDS011;67209;51.698;-0.292;2024-03-23T11:35:43;3.63;;;0.95;;
78004;SDS011;67209;51.698;-0.292;2024-03-23T11:38:10;3.72;;;0.60;;
78004;SDS011;67209;51.698;-0.292;2024-03-23T11:40:37;4.93;;;0.90;;
78004;SDS011;67209;51.698;-0.292;2024-03-23T11:43:04;2.85;;;0.63;;
78004;SDS011;67209;51.698;-0.292;2024-03-23T11:45:37;4.50;;;0.98;;
78004;SDS011;67209;51.698;-0.292;2024-03-23T11:48:08;4.72;;;0.68;;
78004;SDS011;67209;51.698;-0.292;2024-03-23T11:50:35;5.13;;;0.60;;
78004;SDS011;67209;51.698;-0.292;2024-03-23T11:58:12;3.17;;;0.55;;
78004;SDS011;67209;51.698;-0.292;2024-03-23T12:00:38;2.22;;;0.60;;
78004;SDS011;67209;51.698;-0.292;2024-03-23T12:03:05;7.60;;;0.68;;
78004;SDS011;67209;51.698;-0.292;2024-03-23T12:05:32;2.20;;;0.82;;
78004;SDS011;67209;51.698;-0.292;2024-03-23T12:10:52;4.63;;;0.80;;
78004;SDS011;67209;51.698;-0.292;2024-03-23T12:13:19;5.55;;;0.80;;
78004;SDS011;67209;51.698;-0.292;2024-03-23T12:15:46;4.90;;;0.73;;
78004;SDS011;67209;51.698;-0.292;2024-03-23T12:18:12;4.15;;;0.85;;
78004;SDS011;67209;51.698;-0.292;2024-03-23T12:20:39;3.60;;;0.68;;
78004;SDS011;67209;51.698;-0.292;2024-03-23T12:23:08;3.22;;;0.65;;
78004;SDS011;67209;51.698;-0.292;2024-03-23T12:25:35;6.20;;;0.70;;
78004;SDS011;67209;51.698;-0.292;2024-03-23T12:28:01;4.78;;;0.60;;
78004;SDS011;67209;51.698;-0.292;2024-03-23T12:30:28;2.55;;;0.70;;
78004;SDS011;67209;51.698;-0.292;2024-03-23T12:32:54;3.58;;;0.75;;
78004;SDS011;67209;51.698;-0.292;2024-03-23T12:35:20;4.97;;;1.10;;
78004;SDS011;67209;51.698;-0.292;2024-03-23T12:37:46;2.63;;;0.77;;
78004;SDS011;67209;51.698;-0.292;2024-03-23T12:40:12;4.50;;;0.95;;
78004;SDS011;67209;51.698;-0.292;2024-03-23T12:42:38;2.78;;;0.63;;
78004;SDS011;67209;51.698;-0.292;2024-03-23T12:45:04;2.40;;;0.52;;
78004;SDS011;67209;51.698;-0.292;2024-03-23T12:47:30;4.68;;;0.50;;
78004;SDS011;67209;51.698;-0.292;2024-03-23T12:49:56;4.45;;;0.65;;
78004;SDS011;67209;51.698;-0.292;2024-03-23T12:52:22;4.82;;;0.70;;
78004;SDS011;67209;51.698;-0.292;2024-03-23T12:54:53;4.40;;;0.80;;
78004;SDS011;67209;51.698;-0.292;2024-03-23T12:57:20;4.22;;;0.40;;
78004;SDS011;67209;51.698;-0.292;2024-03-23T12:59:46;4.55;;;0.65;;
78004;SDS011;67209;51.698;-0.292;2024-03-23T13:02:15;3.75;;;0.40;;
78004;SDS011;67209;51.698;-0.292;2024-03-23T13:04:42;3.63;;;0.80;;
78004;SDS011;67209;51.698;-0.292;2024-03-23T13:07:08;3.10;;;0.50;;
78004;SDS011;67209;51.698;-0.292;2024-03-23T13:09:34;1.77;;;0.20;;
78004;SDS011;67209;51.698;-0.292;2024-03-23T13:12:00;2.92;;;0.38;;
78004;SDS011;67209;51.698;-0.292;2024-03-23T13:14:27;1.75;;;0.28;;
78004;SDS011;67209;51.698;-0.292;2024-03-23T13:16:53;2.08;;;0.60;;
78004;SDS011;67209;51.698;-0.292;2024-03-23T13:19:19;1.02;;;0.30;;
78004;SDS011;67209;51.698;-0.292;2024-03-23T13:21:45;1.25;;;0.20;;
78004;SDS011;67209;51.698;-0.292;2024-03-23T13:24:11;2.85;;;0.30;;
78004;SDS011;67209;51.698;-0.292;2024-03-23T13:26:37;2.30;;;0.32;;
78004;SDS011;67209;51.698;-0.292;2024-03-23T13:29:03;2.03;;;0.20;;
78004;SDS011;67209;51.698;-0.292;2024-03-23T13:31:29;0.73;;;0.13;;
78004;SDS011;67209;51.698;-0.292;2024-03-23T13:33:55;0.40;;;0.10;;
78004;SDS011;67209;51.698;-0.292;2024-03-23T13:36:21;0.35;;;0.13;;
78004;SDS011;67209;51.698;-0.292;2024-03-23T13:38:47;0.40;;;0.00;;
78004;SDS011;67209;51.698;-0.292;2024-03-23T13:41:13;1.45;;;0.45;;
78004;SDS011;67209;51.698;-0.292;2024-03-23T13:43:39;0.68;;;0.10;;
78004;SDS011;67209;51.698;-0.292;2024-03-23T13:46:06;0.20;;;0.00;;
78004;SDS011;67209;51.698;-0.292;2024-03-23T13:48:32;0.20;;;0.00;;
78004;SDS011;67209;51.698;-0.292;2024-03-23T13:53:25;0.40;;;0.10;;
78004;SDS011;67209;51.698;-0.292;2024-03-23T13:55:51;0.82;;;0.10;;
78004;SDS011;67209;51.698;-0.292;2024-03-23T13:58:17;0.20;;;0.00;;
78004;SDS011;67209;51.698;-0.292;2024-03-23T14:00:43;0.90;;;0.10;;
78004;SDS011;67209;51.698;-0.292;2024-03-23T14:03:12;0.50;;;0.10;;
78004;SDS011;67209;51.698;-0.292;2024-03-23T14:05:39;0.45;;;0.10;;
78004;SDS011;67209;51.698;-0.292;2024-03-23T14:08:08;2.78;;;0.70;;
78004;SDS011;67209;51.698;-0.292;2024-03-23T14:10:35;0.80;;;0.30;;
78004;SDS011;67209;51.698;-0.292;2024-03-23T14:13:01;0.77;;;0.20;;
78004;SDS011;67209;51.698;-0.292;2024-03-23T14:15:28;0.57;;;0.20;;
78004;SDS011;67209;51.698;-0.292;2024-03-23T14:17:55;1.65;;;0.20;;
78004;SDS011;67209;51.698;-0.292;2024-03-23T14:20:22;0.88;;;0.10;;
78004;SDS011;67209;51.698;-0.292;2024-03-23T14:22:48;1.10;;;0.20;;
78004;SDS011;67209;51.698;-0.292;2024-03-23T14:25:14;1.35;;;0.20;;
78004;SDS011;67209;51.698;-0.292;2024-03-23T14:27:40;0.13;;;0.10;;
78004;SDS011;67209;51.698;-0.292;2024-03-23T14:30:06;0.60;;;0.20;;
78004;SDS011;67209;51.698;-0.292;2024-03-23T14:32:33;1.85;;;0.25;;
78004;SDS011;67209;51.698;-0.292;2024-03-23T14:35:03;2.88;;;0.60;;
78004;SDS011;67209;51.698;-0.292;2024-03-23T14:37:29;1.15;;;0.40;;
78004;SDS011;67209;51.698;-0.292;2024-03-23T14:39:56;0.55;;;0.20;;
78004;SDS011;67209;51.698;-0.292;2024-03-23T14:42:22;2.15;;;0.40;;
78004;SDS011;67209;51.698;-0.292;2024-03-23T14:44:49;1.08;;;0.30;;
78004;SDS011;67209;51.698;-0.292;2024-03-23T14:47:15;0.45;;;0.20;;
78004;SDS011;67209;51.698;-0.292;2024-03-23T14:49:42;8.45;;;0.45;;
78004;SDS011;67209;51.698;-0.292;2024-03-23T14:52:12;1.67;;;0.40;;
78004;SDS011;67209;51.698;-0.292;2024-03-23T14:54:38;0.77;;;0.30;;
78004;SDS011;67209;51.698;-0.292;2024-03-23T14:57:04;0.90;;;0.22;;
78004;SDS011;67209;51.698;-0.292;2024-03-23T14:59:32;0.77;;;0.30;;
78004;SDS011;67209;51.698;-0.292;2024-03-23T15:01:58;1.85;;;0.30;;
78004;SDS011;67209;51.698;-0.292;2024-03-23T15:04:24;0.82;;;0.30;;
78004;SDS011;67209;51.698;-0.292;2024-03-23T15:06:50;2.47;;;0.50;;
78004;SDS011;67209;51.698;-0.292;2024-03-23T15:09:17;1.20;;;0.40;;
78004;SDS011;67209;51.698;-0.292;2024-03-23T15:11:43;1.40;;;0.28;;
78004;SDS011;67209;51.698;-0.292;2024-03-23T15:14:09;1.85;;;0.40;;
78004;SDS011;67209;51.698;-0.292;2024-03-23T15:16:36;1.20;;;0.25;;
78004;SDS011;67209;51.698;-0.292;2024-03-23T15:19:02;0.63;;;0.30;;
78004;SDS011;67209;51.698;-0.292;2024-03-23T15:21:31;0.75;;;0.20;;
78004;SDS011;67209;51.698;-0.292;2024-03-23T15:23:57;1.00;;;0.20;;
78004;SDS011;67209;51.698;-0.292;2024-03-23T15:26:23;0.77;;;0.20;;
78004;SDS011;67209;51.698;-0.292;2024-03-23T15:28:49;1.63;;;0.30;;
78004;SDS011;67209;51.698;-0.292;2024-03-23T15:31:24;0.50;;;0.17;;
78004;SDS011;67209;51.698;-0.292;2024-03-23T15:33:51;0.93;;;0.20;;
78004;SDS011;67209;51.698;-0.292;2024-03-23T15:36:17;1.00;;;0.30;;
78004;SDS011;67209;51.698;-0.292;2024-03-23T15:38:43;0.65;;;0.28;;
78004;SDS011;67209;51.698;-0.292;2024-03-23T15:41:10;1.80;;;0.45;;